createdAt,value
2022-10-31T00:00:56.910Z,11.00
2022-10-31T00:03:24.445Z,11.10
2022-10-31T00:05:51.921Z,12.07
2022-10-31T00:08:19.995Z,11.13
2022-10-31T00:10:47.534Z,11.00
2022-10-31T00:13:15.548Z,11.60
2022-10-31T00:15:43.088Z,11.33
2022-10-31T00:18:11.402Z,12.67
2022-10-31T00:20:39.247Z,11.97
2022-10-31T00:23:08.740Z,10.37
2022-10-31T00:25:37.475Z,11.60
2022-10-31T00:28:05.533Z,12.60
2022-10-31T00:30:33.518Z,11.30
2022-10-31T00:33:01.362Z,10.37
2022-10-31T00:35:29.145Z,11.63
2022-10-31T00:37:56.665Z,11.27
2022-10-31T00:40:24.123Z,11.03
2022-10-31T00:42:51.631Z,12.20
2022-10-31T00:45:19.135Z,11.10
2022-10-31T00:47:46.624Z,12.27
2022-10-31T00:50:16.918Z,11.67
2022-10-31T00:52:44.702Z,11.57
2022-10-31T00:55:12.191Z,11.00
2022-10-31T00:57:39.767Z,11.83
2022-10-31T01:00:07.579Z,11.77
2022-10-31T01:02:35.404Z,10.83
2022-10-31T01:05:03.004Z,11.67
2022-10-31T01:07:30.493Z,11.83
2022-10-31T01:09:57.954Z,11.80
2022-10-31T01:12:25.521Z,12.43
2022-10-31T01:14:53.249Z,12.17
2022-10-31T01:17:20.886Z,12.50
2022-10-31T01:19:48.322Z,12.37
2022-10-31T01:22:15.867Z,12.90
2022-10-31T01:24:43.410Z,11.50
2022-10-31T01:27:10.934Z,12.50
2022-10-31T01:29:38.586Z,12.63
2022-10-31T01:32:06.607Z,11.53
2022-10-31T01:34:34.206Z,13.40
2022-10-31T01:37:02.156Z,13.17
2022-10-31T01:39:29.629Z,12.23
2022-10-31T01:41:57.294Z,12.97
2022-10-31T01:44:24.711Z,12.43
2022-10-31T01:46:55.381Z,12.87
2022-10-31T01:49:32.777Z,12.30
2022-10-31T01:52:03.494Z,12.87
2022-10-31T01:54:33.854Z,13.67
2022-10-31T01:57:03.368Z,12.73
2022-10-31T01:59:32.914Z,13.03
2022-10-31T02:02:00.527Z,12.20
2022-10-31T02:04:28.900Z,13.20
2022-10-31T02:07:02.490Z,14.17
2022-10-31T02:09:31.282Z,13.07
2022-10-31T02:12:00.405Z,13.40
2022-10-31T02:14:29.853Z,13.17
2022-10-31T02:16:57.721Z,13.60
2022-10-31T02:19:44.467Z,14.00
2022-10-31T02:22:26.492Z,11.97
2022-10-31T02:24:53.980Z,12.57
2022-10-31T02:27:33.720Z,12.63
2022-10-31T02:30:04.042Z,13.33
2022-10-31T02:32:34.273Z,12.77
2022-10-31T02:35:14.094Z,13.17
2022-10-31T02:38:20.014Z,13.10
2022-10-31T02:40:55.002Z,13.20
2022-10-31T02:43:25.699Z,12.03
2022-10-31T02:46:12.555Z,12.73
2022-10-31T02:48:41.735Z,14.13
2022-10-31T02:51:09.934Z,13.33
2022-10-31T02:53:38.096Z,12.83
2022-10-31T02:56:08.642Z,13.07
2022-10-31T02:58:38.695Z,12.57
2022-10-31T03:01:09.278Z,12.63
2022-10-31T03:03:53.596Z,13.60
2022-10-31T03:06:27.102Z,12.47
2022-10-31T03:09:02.679Z,13.60
2022-10-31T03:11:33.090Z,12.90
2022-10-31T03:14:06.621Z,13.37
2022-10-31T03:16:37.044Z,13.33
2022-10-31T03:19:04.582Z,13.17
2022-10-31T03:21:35.300Z,12.50
2022-10-31T03:24:03.559Z,12.90
2022-10-31T03:26:31.748Z,14.53
2022-10-31T03:29:01.795Z,13.10
2022-10-31T03:31:33.954Z,12.80
2022-10-31T03:34:02.709Z,13.13
2022-10-31T03:36:31.805Z,13.13
2022-10-31T03:39:01.028Z,13.00
2022-10-31T03:41:30.774Z,14.17
2022-10-31T03:44:04.147Z,13.43
2022-10-31T03:46:31.759Z,13.90
2022-10-31T03:49:00.047Z,13.33
2022-10-31T03:51:32.611Z,12.20
2022-10-31T03:54:03.127Z,12.87
2022-10-31T03:56:33.778Z,13.43
2022-10-31T03:59:07.406Z,12.37
2022-10-31T04:01:38.095Z,12.70
2022-10-31T04:04:06.102Z,12.37
2022-10-31T04:06:36.105Z,13.27
2022-10-31T04:09:05.202Z,12.43
2022-10-31T04:11:42.105Z,12.50
2022-10-31T04:14:10.626Z,11.77
2022-10-31T04:16:38.530Z,12.60
2022-10-31T04:19:06.057Z,12.70
2022-10-31T04:21:33.501Z,13.30
2022-10-31T04:24:01.021Z,13.00
2022-10-31T04:26:28.447Z,12.03
2022-10-31T04:28:55.966Z,12.43
2022-10-31T04:31:23.473Z,12.73
2022-10-31T04:33:50.966Z,13.07
2022-10-31T04:36:18.452Z,12.70
2022-10-31T04:38:45.923Z,12.50
2022-10-31T04:41:13.613Z,13.33
2022-10-31T04:43:41.056Z,12.00
2022-10-31T04:46:08.506Z,11.53
2022-10-31T04:48:35.934Z,12.47
2022-10-31T04:51:04.015Z,13.40
2022-10-31T04:53:31.558Z,11.60
2022-10-31T04:56:01.961Z,13.83
2022-10-31T04:58:29.937Z,14.03
2022-10-31T05:00:57.584Z,12.83
2022-10-31T05:03:25.131Z,11.77
2022-10-31T05:05:52.632Z,11.93
2022-10-31T05:08:20.155Z,11.77
2022-10-31T05:10:47.686Z,12.50
2022-10-31T05:13:15.209Z,11.33
2022-10-31T05:15:42.795Z,11.23
2022-10-31T05:18:10.372Z,13.47
2022-10-31T05:20:37.886Z,13.40
2022-10-31T05:23:05.573Z,12.17
2022-10-31T05:25:33.133Z,11.77
2022-10-31T05:28:01.037Z,12.67
2022-10-31T05:30:30.295Z,12.00
2022-10-31T05:32:58.643Z,11.50
2022-10-31T05:35:31.006Z,12.57
2022-10-31T05:37:59.031Z,11.80
2022-10-31T05:40:27.263Z,11.17
2022-10-31T05:42:55.452Z,11.20
2022-10-31T05:45:23.312Z,11.43
2022-10-31T05:47:55.261Z,11.40
2022-10-31T05:50:23.206Z,11.50
2022-10-31T05:52:58.159Z,11.90
2022-10-31T05:55:25.986Z,11.10
2022-10-31T05:57:53.963Z,10.70
2022-10-31T06:00:22.127Z,11.00
2022-10-31T06:02:50.086Z,11.30
2022-10-31T06:05:17.662Z,12.37
2022-10-31T06:07:45.209Z,11.53
2022-10-31T06:10:12.881Z,10.73
2022-10-31T06:12:40.381Z,10.50
2022-10-31T06:15:08.705Z,11.10
2022-10-31T06:17:36.487Z,10.80
2022-10-31T06:20:04.366Z,11.40
2022-10-31T06:22:32.029Z,10.60
2022-10-31T06:24:59.602Z,12.67
2022-10-31T06:27:27.328Z,11.53
2022-10-31T06:29:54.899Z,10.63
2022-10-31T06:32:22.405Z,10.80
2022-10-31T06:34:49.943Z,11.30
2022-10-31T06:37:17.464Z,10.57
2022-10-31T06:39:44.986Z,11.10
2022-10-31T06:42:12.487Z,10.97
2022-10-31T06:44:40.094Z,12.10
2022-10-31T06:47:07.927Z,11.20
2022-10-31T06:49:35.379Z,10.70
2022-10-31T06:52:02.827Z,11.23
2022-10-31T06:54:30.623Z,9.90
2022-10-31T06:56:58.086Z,10.27
2022-10-31T06:59:25.710Z,11.23
2022-10-31T07:01:53.378Z,10.63
2022-10-31T07:04:21.073Z,11.83
2022-10-31T07:06:51.840Z,11.07
2022-10-31T07:09:19.769Z,10.50
2022-10-31T07:11:47.203Z,9.87
2022-10-31T07:14:14.831Z,10.30
2022-10-31T07:16:42.361Z,22.70
2022-10-31T07:19:09.865Z,10.80
2022-10-31T07:21:37.326Z,11.93
2022-10-31T07:24:04.918Z,12.40
2022-10-31T07:26:32.489Z,11.53
2022-10-31T07:29:00.008Z,12.53
2022-10-31T07:31:27.527Z,11.63
2022-10-31T07:33:55.079Z,11.13
2022-10-31T07:36:22.624Z,11.67
2022-10-31T07:38:50.089Z,11.83
2022-10-31T07:41:17.598Z,12.90
2022-10-31T07:43:45.243Z,13.13
2022-10-31T07:46:12.722Z,13.13
2022-10-31T07:48:40.252Z,12.73
2022-10-31T07:51:07.847Z,11.23
2022-10-31T07:53:35.468Z,12.00
2022-10-31T07:56:03.002Z,12.77
2022-10-31T07:58:30.541Z,11.87
2022-10-31T08:00:59.254Z,11.37
2022-10-31T08:03:26.989Z,12.13
2022-10-31T08:05:54.526Z,12.37
2022-10-31T08:08:22.055Z,12.10
2022-10-31T08:10:49.529Z,13.10
2022-10-31T08:13:17.088Z,12.50
2022-10-31T08:15:44.915Z,12.00
2022-10-31T08:18:15.192Z,12.30
2022-10-31T08:20:43.155Z,12.23
2022-10-31T08:23:11.354Z,12.53
2022-10-31T08:25:39.462Z,11.07
2022-10-31T08:28:07.561Z,11.57
2022-10-31T08:30:36.990Z,11.53
2022-10-31T08:33:06.025Z,12.30
2022-10-31T08:35:34.330Z,12.07
2022-10-31T08:38:02.652Z,12.80
2022-10-31T08:40:31.185Z,11.90
2022-10-31T08:43:02.667Z,12.67
2022-10-31T08:45:30.785Z,13.43
2022-10-31T08:47:59.266Z,12.13
2022-10-31T08:50:27.754Z,12.30
2022-10-31T08:53:10.014Z,12.60
2022-10-31T08:55:37.869Z,12.07
2022-10-31T08:58:06.390Z,12.43
2022-10-31T09:00:34.876Z,12.00
2022-10-31T09:03:07.128Z,11.43
2022-10-31T09:05:34.981Z,12.77
2022-10-31T09:08:03.948Z,11.40
2022-10-31T09:10:32.364Z,12.60
2022-10-31T09:13:01.085Z,12.87
2022-10-31T09:15:29.117Z,12.57
2022-10-31T09:17:56.620Z,11.73
2022-10-31T09:20:24.109Z,10.73
2022-10-31T09:22:58.710Z,10.13
2022-10-31T09:25:26.657Z,10.63
2022-10-31T09:27:57.434Z,11.03
2022-10-31T09:30:25.911Z,9.80
2022-10-31T09:32:57.068Z,9.40
2022-10-31T09:35:25.825Z,10.07
2022-10-31T09:38:04.090Z,10.37
2022-10-31T09:40:36.614Z,10.17
2022-10-31T09:43:06.935Z,8.73
2022-10-31T09:45:40.392Z,9.27
2022-10-31T09:48:13.697Z,9.20
2022-10-31T09:50:53.730Z,9.10
2022-10-31T09:53:30.233Z,8.70
2022-10-31T09:56:06.670Z,8.70
2022-10-31T09:58:38.967Z,9.27
2022-10-31T10:01:07.311Z,8.40
2022-10-31T10:03:37.531Z,9.33
2022-10-31T10:06:23.017Z,8.63
2022-10-31T10:08:50.678Z,9.07
2022-10-31T10:11:33.237Z,9.43
2022-10-31T10:14:03.837Z,9.27
2022-10-31T10:16:37.463Z,9.60
2022-10-31T10:19:37.266Z,8.83
2022-10-31T10:22:18.708Z,8.27
2022-10-31T10:24:49.287Z,9.00
2022-10-31T10:30:54.829Z,9.17
2022-10-31T10:33:36.976Z,9.80
2022-10-31T10:36:10.580Z,10.27
2022-10-31T10:38:38.125Z,10.17
2022-10-31T10:41:08.190Z,9.83
2022-10-31T10:43:36.587Z,10.47
2022-10-31T10:46:11.926Z,9.33
2022-10-31T10:48:43.763Z,9.90
2022-10-31T10:54:40.143Z,10.27
2022-10-31T10:57:10.544Z,10.23
2022-10-31T10:59:38.156Z,11.00
2022-10-31T11:02:17.091Z,10.77
2022-10-31T11:04:44.871Z,10.40
2022-10-31T11:07:12.860Z,10.60
2022-10-31T11:09:41.123Z,9.43
2022-10-31T11:12:09.841Z,10.07
2022-10-31T11:14:44.104Z,10.87
2022-10-31T11:17:19.473Z,10.10
2022-10-31T11:19:47.070Z,10.27
2022-10-31T11:22:17.816Z,8.27
2022-10-31T11:24:45.470Z,9.50
2022-10-31T11:27:18.469Z,8.90
2022-10-31T11:29:46.001Z,9.03
2022-10-31T11:32:21.645Z,8.60
2022-10-31T11:34:51.553Z,8.27
2022-10-31T11:37:22.044Z,7.67
2022-10-31T11:39:54.637Z,7.37
2022-10-31T11:42:23.374Z,6.53
2022-10-31T11:44:51.805Z,6.70
2022-10-31T11:47:22.322Z,7.27
2022-10-31T11:49:50.177Z,6.83
2022-10-31T11:52:25.935Z,7.33
2022-10-31T11:55:01.321Z,7.03
2022-10-31T11:57:31.751Z,6.93
2022-10-31T12:00:00.803Z,6.73
2022-10-31T12:02:28.758Z,7.60
2022-10-31T12:05:04.147Z,7.33
2022-10-31T12:07:31.751Z,7.27
2022-10-31T12:09:59.299Z,6.87
2022-10-31T12:12:30.035Z,6.10
2022-10-31T12:15:13.952Z,7.50
2022-10-31T12:17:50.520Z,7.17
2022-10-31T12:20:36.829Z,7.00
2022-10-31T12:23:23.245Z,6.27
2022-10-31T12:25:58.626Z,6.43
2022-10-31T12:28:29.289Z,5.90
2022-10-31T12:30:59.591Z,5.70
2022-10-31T12:33:30.007Z,6.10
2022-10-31T12:36:17.041Z,5.60
2022-10-31T12:38:53.542Z,6.17
2022-10-31T12:41:43.823Z,6.27
2022-10-31T12:44:18.241Z,6.00
2022-10-31T12:47:04.145Z,6.27
2022-10-31T12:49:54.735Z,5.47
2022-10-31T12:52:35.117Z,6.00
2022-10-31T12:55:02.586Z,5.27
2022-10-31T12:57:33.138Z,5.73
2022-10-31T13:00:03.772Z,5.17
2022-10-31T13:02:41.723Z,5.10
2022-10-31T13:05:18.420Z,4.93
2022-10-31T13:07:47.985Z,5.30
2022-10-31T13:10:24.749Z,5.30
2022-10-31T13:12:54.969Z,4.90
2022-10-31T13:15:27.247Z,5.60
2022-10-31T13:17:59.366Z,3.70
2022-10-31T13:20:44.677Z,4.77
2022-10-31T13:23:36.989Z,4.60
2022-10-31T13:26:09.941Z,3.53
2022-10-31T13:31:18.239Z,3.97
2022-10-31T13:33:48.669Z,4.70
2022-10-31T13:36:21.792Z,4.13
2022-10-31T13:39:01.214Z,4.20
2022-10-31T13:41:45.438Z,5.03
2022-10-31T13:44:26.426Z,4.80
2022-10-31T13:46:58.223Z,4.50
2022-10-31T13:49:31.890Z,4.50
2022-10-31T13:52:14.906Z,4.53
2022-10-31T13:54:45.395Z,4.30
2022-10-31T13:57:22.135Z,4.30
2022-10-31T14:00:00.619Z,3.43
2022-10-31T14:02:32.863Z,4.40
2022-10-31T14:05:23.500Z,4.50
2022-10-31T14:07:51.705Z,4.43
2022-10-31T14:10:36.913Z,3.97
2022-10-31T14:13:17.241Z,4.37
2022-10-31T14:15:53.579Z,3.90
2022-10-31T14:18:31.521Z,3.60
2022-10-31T14:20:59.179Z,4.33
2022-10-31T14:23:32.562Z,4.33
2022-10-31T14:26:09.010Z,4.13
2022-10-31T14:28:37.238Z,4.03
2022-10-31T14:31:24.698Z,4.70
2022-10-31T14:33:52.192Z,4.20
2022-10-31T14:36:23.753Z,3.60
2022-10-31T14:38:59.141Z,4.33
2022-10-31T14:41:52.437Z,5.00
2022-10-31T14:44:38.411Z,3.70
2022-10-31T14:47:21.373Z,3.87
2022-10-31T14:49:52.047Z,4.03
2022-10-31T14:52:20.081Z,3.53
2022-10-31T14:54:50.197Z,3.70
2022-10-31T14:57:23.494Z,4.50
2022-10-31T14:59:57.973Z,4.13
2022-10-31T15:02:51.739Z,3.97
2022-10-31T15:05:19.510Z,3.67
2022-10-31T15:07:50.867Z,3.97
2022-10-31T15:10:23.434Z,3.70
2022-10-31T15:12:51.013Z,3.70
2022-10-31T15:15:21.561Z,3.60
2022-10-31T15:17:56.497Z,3.57
2022-10-31T15:20:26.126Z,3.90
2022-10-31T15:22:53.800Z,3.70
2022-10-31T15:25:22.796Z,3.73
2022-10-31T15:27:51.131Z,4.50
2022-10-31T15:30:23.341Z,4.10
2022-10-31T15:32:58.331Z,3.37
2022-10-31T15:35:30.555Z,4.60
2022-10-31T15:37:59.374Z,3.53
2022-10-31T15:40:28.217Z,3.93
2022-10-31T15:42:58.001Z,3.97
2022-10-31T15:45:26.772Z,4.33
2022-10-31T15:47:59.283Z,4.73
2022-10-31T15:50:33.498Z,4.07
2022-10-31T15:53:01.704Z,4.00
2022-10-31T15:55:34.684Z,3.97
2022-10-31T15:58:03.530Z,4.00
2022-10-31T16:00:38.110Z,3.60
2022-10-31T16:03:22.022Z,3.90
2022-10-31T16:05:57.343Z,4.07
2022-10-31T16:08:30.786Z,3.83
2022-10-31T16:11:13.554Z,4.40
2022-10-31T16:13:43.175Z,3.47
2022-10-31T16:16:34.620Z,3.37
2022-10-31T16:19:03.752Z,4.03
2022-10-31T16:21:36.170Z,4.70
2022-10-31T16:24:06.603Z,4.00
2022-10-31T16:26:34.744Z,4.47
2022-10-31T16:29:05.629Z,4.87
2022-10-31T16:31:40.635Z,4.27
2022-10-31T16:34:26.026Z,4.30
2022-10-31T16:36:54.463Z,3.87
2022-10-31T16:39:21.996Z,4.20
2022-10-31T16:41:51.836Z,4.90
2022-10-31T16:44:21.285Z,4.30
2022-10-31T16:46:49.083Z,4.83
2022-10-31T16:49:16.704Z,4.23
2022-10-31T16:51:44.191Z,3.93
2022-10-31T16:54:11.757Z,4.33
2022-10-31T16:56:39.665Z,3.87
2022-10-31T16:59:13.350Z,3.60
2022-10-31T17:01:46.640Z,3.97
2022-10-31T17:04:15.690Z,4.03
2022-10-31T17:06:43.759Z,4.13
2022-10-31T17:09:11.780Z,3.60
2022-10-31T17:11:45.375Z,4.30
2022-10-31T17:14:19.446Z,3.60
2022-10-31T17:16:47.241Z,3.93
2022-10-31T17:19:15.047Z,3.30
2022-10-31T17:21:46.059Z,3.70
2022-10-31T17:24:15.026Z,4.13
2022-10-31T17:26:43.233Z,4.23
2022-10-31T17:29:10.919Z,4.30
2022-10-31T17:31:38.432Z,4.00
2022-10-31T17:34:06.743Z,3.50
2022-10-31T17:36:35.194Z,4.07
2022-10-31T17:39:03.395Z,4.20
2022-10-31T17:41:31.969Z,3.73
2022-10-31T17:44:00.375Z,3.83
2022-10-31T17:46:28.003Z,3.70
2022-10-31T17:48:56.018Z,4.13
2022-10-31T17:51:23.753Z,3.43
2022-10-31T17:53:51.481Z,4.30
2022-10-31T17:56:19.055Z,4.43
2022-10-31T17:58:46.799Z,3.63
2022-10-31T18:01:16.078Z,4.17
2022-10-31T18:03:43.920Z,4.17
2022-10-31T18:06:14.672Z,4.17
2022-10-31T18:08:42.430Z,3.97
2022-10-31T18:11:11.502Z,3.83
2022-10-31T18:13:39.743Z,3.60
2022-10-31T18:16:08.235Z,3.57
2022-10-31T18:18:35.959Z,4.43
2022-10-31T18:21:03.571Z,4.53
2022-10-31T18:23:31.331Z,4.10
2022-10-31T18:25:58.816Z,4.23
2022-10-31T18:28:26.338Z,3.80
2022-10-31T18:30:53.834Z,3.63
2022-10-31T18:33:21.381Z,3.80
2022-10-31T18:35:48.893Z,4.53
2022-10-31T18:38:16.603Z,4.00
2022-10-31T18:40:44.087Z,3.33
2022-10-31T18:43:11.779Z,4.57
2022-10-31T18:45:49.385Z,4.30
2022-10-31T18:48:17.876Z,3.70
2022-10-31T18:50:45.523Z,3.60
2022-10-31T18:53:13.250Z,4.30
2022-10-31T18:55:45.346Z,4.40
2022-10-31T18:58:17.081Z,4.93
2022-10-31T19:00:44.698Z,4.43
2022-10-31T19:03:12.804Z,4.03
2022-10-31T19:05:40.481Z,4.43
2022-10-31T19:08:08.474Z,4.27
2022-10-31T19:10:36.585Z,4.73
2022-10-31T19:13:04.438Z,4.57
2022-10-31T19:15:33.901Z,4.00
2022-10-31T19:18:01.451Z,4.20
2022-10-31T19:20:29.189Z,4.03
2022-10-31T19:22:56.697Z,4.23
2022-10-31T19:25:24.202Z,5.40
2022-10-31T19:27:51.760Z,4.93
2022-10-31T19:30:19.310Z,4.90
2022-10-31T19:32:46.905Z,4.33
2022-10-31T19:35:14.472Z,4.40
2022-10-31T19:37:41.998Z,4.07
2022-10-31T19:40:09.960Z,4.53
2022-10-31T19:42:37.652Z,4.67
2022-10-31T19:45:05.710Z,4.20
2022-10-31T19:47:33.819Z,4.80
2022-10-31T19:50:01.652Z,3.97
2022-10-31T19:52:29.200Z,4.27
2022-10-31T19:54:57.047Z,4.17
2022-10-31T19:57:48.391Z,3.93
2022-10-31T20:00:12.619Z,4.50
2022-10-31T20:02:40.106Z,4.43
2022-10-31T20:05:09.126Z,3.80
2022-10-31T20:07:36.587Z,4.77
2022-10-31T20:10:04.193Z,4.53
2022-10-31T20:12:33.579Z,5.03
2022-10-31T20:15:01.066Z,4.50
2022-10-31T20:17:28.594Z,4.50
2022-10-31T20:19:56.207Z,5.27
2022-10-31T20:22:23.737Z,5.30
2022-10-31T20:24:51.190Z,5.03
2022-10-31T20:27:18.798Z,4.03
2022-10-31T20:29:46.274Z,4.93
2022-10-31T20:32:13.837Z,5.03
2022-10-31T20:34:41.427Z,5.00
2022-10-31T20:37:09.132Z,4.67
2022-10-31T20:39:36.881Z,4.90
2022-10-31T20:42:05.139Z,4.40
2022-10-31T20:44:33.038Z,4.20
2022-10-31T20:47:00.754Z,4.77
2022-10-31T20:49:30.947Z,5.23
2022-10-31T20:51:58.616Z,5.33
2022-10-31T20:54:26.395Z,5.40
2022-10-31T20:56:54.015Z,4.90
2022-10-31T20:59:21.551Z,5.30
2022-10-31T21:01:49.225Z,5.33
2022-10-31T21:04:16.910Z,5.20
2022-10-31T21:06:49.209Z,5.60
2022-10-31T21:09:17.284Z,5.17
2022-10-31T21:11:44.836Z,5.70
2022-10-31T21:14:12.423Z,4.80
2022-10-31T21:16:39.943Z,5.17
2022-10-31T21:19:07.473Z,5.10
2022-10-31T21:21:36.102Z,5.83
2022-10-31T21:24:05.761Z,4.90
2022-10-31T21:26:35.274Z,5.17
2022-10-31T21:29:03.140Z,5.27
2022-10-31T21:31:30.648Z,5.00
2022-10-31T21:33:58.261Z,4.77
2022-10-31T21:36:25.769Z,5.23
2022-10-31T21:38:53.882Z,4.97
2022-10-31T21:41:22.033Z,4.63
2022-10-31T21:43:50.603Z,4.93
2022-10-31T21:46:22.044Z,4.90
2022-10-31T21:48:49.988Z,4.80
2022-10-31T21:51:19.688Z,4.90
2022-10-31T21:53:47.297Z,4.70
2022-10-31T21:56:15.075Z,4.90
2022-10-31T21:58:45.496Z,4.43
2022-10-31T22:01:13.219Z,4.87
2022-10-31T22:03:46.804Z,4.90
2022-10-31T22:06:15.913Z,4.57
2022-10-31T22:08:43.717Z,4.67
2022-10-31T22:11:12.753Z,5.30
2022-10-31T22:13:40.658Z,4.60
2022-10-31T22:16:09.588Z,4.67
2022-10-31T22:18:37.495Z,4.87
2022-10-31T22:21:08.233Z,4.27
2022-10-31T22:23:36.282Z,4.80
2022-10-31T22:26:07.698Z,5.27
2022-10-31T22:28:35.727Z,4.30
2022-10-31T22:31:06.960Z,4.80
2022-10-31T22:33:34.600Z,5.00
2022-10-31T22:36:02.575Z,4.33
2022-10-31T22:38:30.966Z,4.83
2022-10-31T22:40:58.910Z,4.23
2022-10-31T22:43:26.674Z,4.70
2022-10-31T22:45:58.206Z,4.20
2022-10-31T22:48:25.729Z,5.00
2022-10-31T22:50:53.339Z,4.50
2022-10-31T22:53:20.935Z,4.63
2022-10-31T22:55:50.221Z,4.77
2022-10-31T22:58:17.690Z,5.50
2022-10-31T23:00:45.375Z,5.07
2022-10-31T23:03:12.904Z,5.17
2022-10-31T23:05:40.409Z,4.87
2022-10-31T23:08:07.997Z,4.87
2022-10-31T23:10:35.554Z,4.77
2022-10-31T23:13:06.130Z,4.83
2022-10-31T23:15:37.074Z,4.57
2022-10-31T23:18:08.198Z,4.70
2022-10-31T23:20:42.058Z,5.27
2022-10-31T23:23:09.561Z,5.27
2022-10-31T23:25:37.045Z,5.57
2022-10-31T23:28:04.640Z,5.30
2022-10-31T23:30:32.139Z,4.97
2022-10-31T23:32:59.803Z,5.10
2022-10-31T23:35:27.535Z,5.37
2022-10-31T23:37:54.966Z,5.30
2022-10-31T23:40:22.549Z,5.17
2022-10-31T23:42:50.086Z,5.03
2022-10-31T23:45:17.711Z,5.40
2022-10-31T23:47:45.340Z,5.10
2022-10-31T23:50:12.897Z,5.13
2022-10-31T23:52:40.403Z,5.23
2022-10-31T23:55:08.074Z,5.27
2022-10-31T23:57:35.533Z,5.00
